Millrift, Pennsylvania
Current Conditions -  °F | °C
As of 11:53 AM on Thursday 18 Dec 2014 (Local Time) from KFWN Reporting Station
Overcast Overcast  
Wind Chill: 31°   Ceiling: 3500
Heat Index: 38°   Visibility: 10mi
Dew Point: 24°   Wind: 10mph
Humidity: 57%   Direction: 310°NW
Pressure: 29.96"   Gusts: 21mph
Location:  41.41°N, 74.74°W
Report Text: KFWN 181653Z AUTO 31009G18KT 280V340 10SM OVC035 03/M04 A2996 RMK AO2 SLP149 T00331044
Loading
Personal Weather Stations






























Interactive Weather Map New forecast layout! Learn more

10-Day Weather Forecast

Advertisements
Track Severe Weather on mobile